< < Back
Terminal Aerodrome Forecast


Current Version              Previous Versions:   1  2  3  4  5  6  7  8  9  

Terminal Aerodrome Forecast

671
FTUS42 KJAX 261704 AAD
TAFJAX
TAF AMD
KJAX 261704Z 2617/2712 09012KT P6SM VCSH SCT020 SCT060 BKN100
     FM262000 07011KT P6SM VCSH SCT040 BKN250
     FM262300 08004KT P6SM SCT100 BKN250=

Latest METAR

058
SAUS80 KWBC 261700 CCA
MTRJAX
METAR KJAX 261656Z 09009KT 10SM FEW020 BKN075 BKN150 OVC250 24/22 A3017
RMK AO2 RAE20 SLP216 OCNL LTGCG DSNT NE CB DSNT NE P0000
T02440222 $


USA.gov is the U.S. government's official web portal to all federal, state and local government web resources and services.